Time;durP1;ratioP1;P1;durP2;ratioP2;P2;SDS_P1;SDS_P2;PMS_P1;PMS_P2;Temp;Humidity;BMP_temperature;BMP_pressure;BME280_temperature;BME280_humidity;BME280_pressure;Samples;Min_cycle;Max_cycle;Signal;HPM_P1;HPM_P2
2022/06/14 00:00:53;0.00;0.00;0.62;0.00;0.00;0.62;2.70;1.17;;;27.40;25.10;;;;;;2261136;61;20451;-60
2022/06/14 00:02:46;0.00;0.00;0.62;0.00;0.00;0.62;2.00;1.10;;;27.40;25.00;;;;;;2260554;61;20401;-60
2022/06/14 00:05:31;0.00;0.00;0.62;0.00;0.00;0.62;2.23;1.57;;;27.40;25.00;;;;;;2261308;61;20400;-60
2022/06/14 00:08:20;0.00;0.00;0.62;0.00;0.00;0.62;2.87;1.60;;;27.40;25.10;;;;;;2257908;61;20425;-60
2022/06/14 00:11:09;0.00;0.00;0.62;0.00;0.00;0.62;2.90;1.40;;;27.40;25.10;;;;;;2260154;61;20912;-65
2022/06/14 00:13:56;0.00;0.00;0.62;0.00;0.00;0.62;3.20;1.30;;;27.40;25.10;;;;;;2260417;61;20469;-60
2022/06/14 00:16:41;0.00;0.00;0.62;0.00;0.00;0.62;2.40;1.73;;;27.40;25.10;;;;;;2260382;61;20793;-60
2022/06/14 00:19:26;0.00;0.00;0.62;0.00;0.00;0.62;2.90;1.40;;;27.40;25.00;;;;;;2259837;61;20381;-61
2022/06/14 00:22:12;0.00;0.00;0.62;0.00;0.00;0.62;1.67;1.10;;;27.40;25.10;;;;;;2261958;61;20408;-63
2022/06/14 00:24:58;0.00;0.00;0.62;0.00;0.00;0.62;1.60;1.00;;;27.40;25.10;;;;;;2260764;61;20369;-62
2022/06/14 00:27:43;0.00;0.00;0.62;0.00;0.00;0.62;1.50;1.00;;;27.40;25.10;;;;;;2260902;61;20411;-59
2022/06/14 00:30:29;0.00;0.00;0.62;0.00;0.00;0.62;2.20;1.40;;;27.40;25.10;;;;;;2259387;61;20403;-60
2022/06/14 00:33:15;0.00;0.00;0.62;0.00;0.00;0.62;2.37;1.10;;;27.40;25.20;;;;;;2260955;61;20388;-60
2022/06/14 00:36:02;0.00;0.00;0.62;0.00;0.00;0.62;2.27;1.03;;;27.30;25.10;;;;;;2260226;61;20781;-58
2022/06/14 00:38:47;0.00;0.00;0.62;0.00;0.00;0.62;3.10;1.30;;;27.40;25.10;;;;;;2260196;61;20392;-58
2022/06/14 00:41:38;0.00;0.00;0.62;0.00;0.00;0.62;1.50;1.13;;;27.30;25.10;;;;;;2261268;61;20443;-58
2022/06/14 00:44:26;0.00;0.00;0.62;0.00;0.00;0.62;2.03;1.00;;;27.30;25.10;;;;;;2261329;61;20778;-59
2022/06/14 00:47:14;0.00;0.00;0.62;0.00;0.00;0.62;1.73;1.10;;;27.30;25.60;;;;;;2261098;61;20360;-60
2022/06/14 00:50:03;0.00;0.00;0.62;0.00;0.00;0.62;2.80;1.50;;;27.30;25.10;;;;;;2261192;61;20463;-61
2022/06/14 00:52:56;0.00;0.00;0.62;0.00;0.00;0.62;2.37;1.43;;;27.30;25.10;;;;;;2261271;61;20472;-60
2022/06/14 00:55:52;0.00;0.00;0.62;0.00;0.00;0.62;1.50;0.93;;;27.30;25.10;;;;;;2260799;61;20349;-61
2022/06/14 00:58:44;0.00;0.00;0.62;0.00;0.00;0.62;1.80;1.23;;;27.30;25.10;;;;;;2261002;61;20447;-59
2022/06/14 01:01:35;0.00;0.00;0.62;0.00;0.00;0.62;2.57;1.40;;;27.30;25.10;;;;;;2260839;61;20482;-59
2022/06/14 01:04:24;0.00;0.00;0.62;0.00;0.00;0.62;2.40;1.50;;;27.30;25.10;;;;;;2260482;61;20411;-60
2022/06/14 01:07:18;0.00;0.00;0.62;0.00;0.00;0.62;2.10;1.20;;;27.20;25.10;;;;;;2261188;61;20361;-61
2022/06/14 01:10:07;0.00;0.00;0.62;0.00;0.00;0.62;2.90;1.27;;;27.20;25.10;;;;;;2259497;61;20392;-57
2022/06/14 01:12:58;0.00;0.00;0.62;0.00;0.00;0.62;2.60;1.47;;;27.20;25.10;;;;;;2262247;61;20384;-61
2022/06/14 01:15:48;0.00;0.00;0.62;0.00;0.00;0.62;2.30;1.37;;;27.20;25.10;;;;;;2258358;61;20385;-60
2022/06/14 01:18:33;0.00;0.00;0.62;0.00;0.00;0.62;2.23;0.90;;;27.20;25.10;;;;;;2260439;61;20405;-58
2022/06/14 01:21:19;0.00;0.00;0.62;0.00;0.00;0.62;2.07;1.33;;;27.20;25.10;;;;;;2260118;61;20920;-60
2022/06/14 01:24:06;0.00;0.00;0.62;0.00;0.00;0.62;3.03;1.20;;;27.20;25.20;;;;;;2259529;61;20369;-60
2022/06/14 01:26:51;0.00;0.00;0.62;0.00;0.00;0.62;2.93;1.20;;;27.20;25.20;;;;;;2260589;61;20365;-59
2022/06/14 01:29:40;0.00;0.00;0.62;0.00;0.00;0.62;1.97;1.20;;;27.20;25.20;;;;;;2261922;61;20384;-60
2022/06/14 01:32:28;0.00;0.00;0.62;0.00;0.00;0.62;1.87;1.00;;;27.20;25.20;;;;;;2261117;61;20471;-59
2022/06/14 01:35:17;0.00;0.00;0.62;0.00;0.00;0.62;2.13;1.13;;;27.20;25.20;;;;;;2258219;61;20784;-61
2022/06/14 01:38:06;0.00;0.00;0.62;0.00;0.00;0.62;1.50;0.90;;;27.20;25.30;;;;;;2261328;61;20893;-60
2022/06/14 01:41:05;0.00;0.00;0.62;0.00;0.00;0.62;3.30;1.60;;;27.20;25.30;;;;;;2260814;61;20428;-60
2022/06/14 01:44:02;0.00;0.00;0.62;0.00;0.00;0.62;2.27;1.20;;;27.20;25.30;;;;;;2261533;61;20415;-60
2022/06/14 01:46:58;0.00;0.00;0.62;0.00;0.00;0.62;1.97;1.20;;;27.20;25.30;;;;;;2260460;61;20450;-58
2022/06/14 01:53:19;0.00;0.00;0.62;0.00;0.00;0.62;1.60;1.10;;;27.20;25.30;;;;;;2259834;61;20392;-58
2022/06/14 01:56:13;0.00;0.00;0.62;0.00;0.00;0.62;2.13;1.20;;;27.10;25.30;;;;;;2259360;61;20468;-59
2022/06/14 01:59:10;0.00;0.00;0.62;0.00;0.00;0.62;2.67;1.40;;;27.10;25.30;;;;;;2260235;61;20365;-59
2022/06/14 02:02:02;0.00;0.00;0.62;0.00;0.00;0.62;1.60;1.00;;;27.10;25.30;;;;;;2259261;61;20885;-58
2022/06/14 02:05:00;0.00;0.00;0.62;0.00;0.00;0.62;3.03;1.23;;;27.10;25.30;;;;;;2259454;61;20909;-60
2022/06/14 02:07:54;0.00;0.00;0.62;0.00;0.00;0.62;3.73;0.90;;;27.10;25.30;;;;;;2259435;61;20925;-60
2022/06/14 02:10:43;0.00;0.00;0.62;0.00;0.00;0.62;3.23;1.23;;;27.10;25.30;;;;;;2259958;61;20381;-60
2022/06/14 02:13:39;0.00;0.00;0.62;0.00;0.00;0.62;2.73;1.17;;;27.10;25.30;;;;;;2260684;61;20928;-60
2022/06/14 02:16:30;0.00;0.00;0.62;0.00;0.00;0.62;2.00;1.03;;;27.10;25.30;;;;;;2256337;61;20749;-60
2022/06/14 02:19:22;0.00;0.00;0.62;0.00;0.00;0.62;2.13;1.00;;;27.00;25.20;;;;;;2260210;61;20380;-58
2022/06/14 02:22:11;0.00;0.00;0.62;0.00;0.00;0.62;1.67;1.00;;;27.00;25.30;;;;;;2260577;61;21038;-60
2022/06/14 02:25:03;0.00;0.00;0.62;0.00;0.00;0.62;1.60;1.13;;;27.00;25.30;;;;;;2259754;61;20453;-60
2022/06/14 02:27:52;0.00;0.00;0.62;0.00;0.00;0.62;2.30;1.13;;;27.00;25.30;;;;;;2260947;61;20571;-60
2022/06/14 02:30:44;0.00;0.00;0.62;0.00;0.00;0.62;2.37;1.20;;;27.00;25.30;;;;;;2259912;61;20381;-60
2022/06/14 02:33:35;0.00;0.00;0.62;0.00;0.00;0.62;3.37;1.63;;;27.00;25.30;;;;;;2260153;61;20384;-59
2022/06/14 02:36:25;0.00;0.00;0.62;0.00;0.00;0.62;2.53;1.20;;;27.00;25.30;;;;;;2260497;61;20456;-61
2022/06/14 02:39:15;0.00;0.00;0.62;0.00;0.00;0.62;3.03;1.27;;;27.00;25.30;;;;;;2260028;61;20397;-53
2022/06/14 02:42:04;0.00;0.00;0.62;0.00;0.00;0.62;1.90;1.07;;;27.00;25.30;;;;;;2260520;61;20357;-58
2022/06/14 02:44:55;0.00;0.00;0.62;0.00;0.00;0.62;1.70;1.13;;;27.00;25.30;;;;;;2259695;61;20377;-56
2022/06/14 02:47:48;0.00;0.00;0.62;0.00;0.00;0.62;2.20;1.00;;;27.00;25.30;;;;;;2260511;61;20544;-57
2022/06/14 02:50:41;0.00;0.00;0.62;0.00;0.00;0.62;2.27;1.07;;;27.00;25.30;;;;;;2262014;61;20408;-59
2022/06/14 02:53:30;0.00;0.00;0.62;0.00;0.00;0.62;1.77;1.10;;;27.00;25.40;;;;;;2261385;61;20531;-54
2022/06/14 02:56:22;0.00;0.00;0.62;0.00;0.00;0.62;2.30;1.13;;;27.00;25.30;;;;;;2258920;61;20361;-58
2022/06/14 02:59:15;0.00;0.00;0.62;0.00;0.00;0.62;1.50;0.90;;;27.00;25.30;;;;;;2261585;61;20471;-56
2022/06/14 03:02:05;0.00;0.00;0.62;0.00;0.00;0.62;2.43;1.23;;;26.90;25.30;;;;;;2257825;61;20357;-57
2022/06/14 03:05:02;0.00;0.00;0.62;0.00;0.00;0.62;2.83;1.50;;;26.90;25.30;;;;;;2260555;61;20407;-57
2022/06/14 03:07:56;0.00;0.00;0.62;0.00;0.00;0.62;2.20;1.23;;;26.90;25.30;;;;;;2259961;61;20365;-56
2022/06/14 03:10:52;0.00;0.00;0.62;0.00;0.00;0.62;2.50;1.10;;;26.90;25.40;;;;;;2257396;61;20376;-58
2022/06/14 03:13:54;0.00;0.00;0.62;0.00;0.00;0.62;1.70;1.10;;;26.90;25.30;;;;;;2260473;61;20453;-60
2022/06/14 03:16:50;0.00;0.00;0.62;0.00;0.00;0.62;1.63;0.97;;;26.90;25.40;;;;;;2260217;61;20411;-60
2022/06/14 03:19:44;0.00;0.00;0.62;0.00;0.00;0.62;2.30;1.40;;;26.90;25.40;;;;;;2260622;61;20373;-57
2022/06/14 03:22:41;0.00;0.00;0.62;0.00;0.00;0.62;2.00;1.10;;;26.80;25.30;;;;;;2260688;61;20361;-59
2022/06/14 03:25:33;0.00;0.00;0.62;0.00;0.00;0.62;3.10;1.60;;;26.80;25.30;;;;;;2257638;61;21097;-60
2022/06/14 03:28:26;0.00;0.00;0.62;0.00;0.00;0.62;2.87;1.30;;;26.80;25.30;;;;;;2263378;61;20361;-59
2022/06/14 03:31:19;0.00;0.00;0.62;0.00;0.00;0.62;2.03;1.10;;;26.90;25.40;;;;;;2262560;61;20894;-60
2022/06/14 03:34:11;0.00;0.00;0.62;0.00;0.00;0.62;2.77;1.40;;;26.80;25.30;;;;;;2262859;61;20376;-59
2022/06/14 03:36:56;0.00;0.00;0.62;0.00;0.00;0.62;1.70;1.10;;;26.80;25.30;;;;;;2262164;61;20360;-60
2022/06/14 03:39:47;0.00;0.00;0.62;0.00;0.00;0.62;2.23;1.43;;;26.80;25.30;;;;;;2261068;61;20385;-56
2022/06/14 03:42:34;0.00;0.00;0.62;0.00;0.00;0.62;2.10;1.23;;;26.80;25.30;;;;;;2260529;61;20365;-60
2022/06/14 03:45:28;0.00;0.00;0.62;0.00;0.00;0.62;2.03;1.40;;;26.80;25.30;;;;;;2259038;61;20479;-59
2022/06/14 03:48:13;0.00;0.00;0.62;0.00;0.00;0.62;1.87;1.10;;;26.80;25.30;;;;;;2260046;61;20476;-56
2022/06/14 03:51:09;0.00;0.00;0.62;0.00;0.00;0.62;2.93;1.10;;;26.80;25.30;;;;;;2260123;61;20393;-58
2022/06/14 03:54:15;0.00;0.00;0.62;0.00;0.00;0.62;1.97;1.20;;;26.80;25.30;;;;;;2259485;61;20583;-58
2022/06/14 03:57:19;0.00;0.00;0.62;0.00;0.00;0.62;2.30;1.17;;;26.80;25.30;;;;;;2261047;61;20357;-58
2022/06/14 04:00:13;0.00;0.00;0.62;0.00;0.00;0.62;1.40;0.90;;;26.80;25.30;;;;;;2260884;61;20531;-58
2022/06/14 04:03:15;0.00;0.00;0.62;0.00;0.00;0.62;2.13;1.20;;;26.70;25.30;;;;;;2258190;61;20381;-57
2022/06/14 04:06:16;0.00;0.00;0.62;0.00;0.00;0.62;3.40;1.10;;;26.70;25.30;;;;;;2260103;61;20447;-59
2022/06/14 04:09:14;0.00;0.00;0.62;0.00;0.00;0.62;2.70;1.60;;;26.70;25.30;;;;;;2259449;61;20512;-60
2022/06/14 04:12:12;0.00;0.00;0.62;0.00;0.00;0.62;2.45;1.20;;;26.70;25.30;;;;;;2260379;61;20449;-60
2022/06/14 04:15:13;0.00;0.00;0.62;0.00;0.00;0.62;2.97;1.60;;;26.70;25.40;;;;;;2260620;61;20237;-61
2022/06/14 04:21:36;0.00;0.00;0.62;0.00;0.00;0.62;1.83;1.00;;;26.70;25.40;;;;;;2260953;61;20775;-61
2022/06/14 04:24:34;0.00;0.00;0.62;0.00;0.00;0.62;1.73;1.30;;;26.70;25.40;;;;;;2260762;61;20400;-61
2022/06/14 04:27:30;0.00;0.00;0.62;0.00;0.00;0.62;3.07;1.10;;;26.70;25.40;;;;;;2261416;61;20361;-59
2022/06/14 04:30:20;0.00;0.00;0.62;0.00;0.00;0.62;2.43;1.13;;;26.70;25.40;;;;;;2260753;61;20417;-59
2022/06/14 04:33:15;0.00;0.00;0.62;0.00;0.00;0.62;2.10;1.17;;;26.70;25.40;;;;;;2260864;61;20466;-61
2022/06/14 04:36:06;0.00;0.00;0.62;0.00;0.00;0.62;2.30;1.10;;;26.70;25.40;;;;;;2260983;61;20519;-60
2022/06/14 04:38:56;0.00;0.00;0.62;0.00;0.00;0.62;1.90;1.17;;;26.70;25.40;;;;;;2257562;61;20832;-61
2022/06/14 04:41:47;0.00;0.00;0.62;0.00;0.00;0.62;1.80;1.03;;;26.70;25.40;;;;;;2261679;61;20436;-60
2022/06/14 04:44:42;0.00;0.00;0.62;0.00;0.00;0.62;1.80;1.30;;;26.70;25.40;;;;;;2259974;61;20361;-61
2022/06/14 04:47:33;0.00;0.00;0.62;0.00;0.00;0.62;3.00;1.10;;;26.60;25.30;;;;;;2260966;61;20370;-61
2022/06/14 04:50:21;0.00;0.00;0.62;0.00;0.00;0.62;1.40;0.80;;;26.60;25.30;;;;;;2260982;61;20380;-58
2022/06/14 04:53:14;0.00;0.00;0.62;0.00;0.00;0.62;1.90;1.13;;;26.60;25.30;;;;;;2257710;61;20419;-61
2022/06/14 04:56:03;0.00;0.00;0.62;0.00;0.00;0.62;1.90;1.10;;;26.60;25.30;;;;;;2258272;61;20358;-60
2022/06/14 04:58:56;0.00;0.00;0.62;0.00;0.00;0.62;1.70;0.97;;;26.60;25.40;;;;;;2260683;61;20349;-60
2022/06/14 05:01:48;0.00;0.00;0.62;0.00;0.00;0.62;1.77;0.90;;;26.60;25.40;;;;;;2261152;61;20353;-61
2022/06/14 05:04:39;0.00;0.00;0.62;0.00;0.00;0.62;1.57;1.17;;;26.60;25.40;;;;;;2260755;61;20376;-62
2022/06/14 05:07:28;0.00;0.00;0.62;0.00;0.00;0.62;2.03;1.00;;;26.60;25.40;;;;;;2260851;61;20361;-60
2022/06/14 05:10:18;0.00;0.00;0.62;0.00;0.00;0.62;1.90;1.03;;;26.60;25.40;;;;;;2261336;61;20426;-61
2022/06/14 05:13:17;0.00;0.00;0.62;0.00;0.00;0.62;1.57;0.93;;;26.60;25.40;;;;;;2260652;61;20429;-60
2022/06/14 05:16:08;0.00;0.00;0.62;0.00;0.00;0.62;1.87;1.20;;;26.60;25.40;;;;;;2260565;61;20384;-58
2022/06/14 05:19:03;0.00;0.00;0.62;0.00;0.00;0.62;3.30;1.53;;;26.60;25.40;;;;;;2261768;61;20457;-64
2022/06/14 05:21:53;0.00;0.00;0.62;0.00;0.00;0.62;5.10;2.07;;;26.60;24.90;;;;;;2261422;61;20357;-64
2022/06/14 05:24:38;0.00;0.00;0.62;0.00;0.00;0.62;2.83;1.47;;;26.50;24.50;;;;;;2260164;61;20361;-66
2022/06/14 05:27:47;0.00;0.00;0.62;0.00;0.00;0.62;4.00;1.50;;;26.30;24.40;;;;;;2261326;61;20360;-65
2022/06/14 05:30:43;0.00;0.00;0.62;0.00;0.00;0.62;2.00;1.30;;;26.20;24.50;;;;;;2260687;61;20447;-65
2022/06/14 05:33:40;0.00;0.00;0.62;0.00;0.00;0.62;3.60;1.27;;;26.20;24.80;;;;;;2260446;61;20393;-66
2022/06/14 05:36:31;0.00;0.00;0.62;0.00;0.00;0.62;1.50;1.00;;;26.10;24.90;;;;;;2259175;61;20420;-67
2022/06/14 05:39:27;0.00;0.00;0.62;0.00;0.00;0.62;1.83;1.30;;;26.10;25.00;;;;;;2259778;61;20781;-62
2022/06/14 05:42:17;0.00;0.00;0.62;0.00;0.00;0.62;2.70;1.47;;;26.10;25.20;;;;;;2256914;61;20388;-62
2022/06/14 05:45:04;0.00;0.00;0.62;0.00;0.00;0.62;2.33;1.10;;;26.10;25.20;;;;;;2259981;61;20376;-64
2022/06/14 05:47:54;0.00;0.00;0.62;0.00;0.00;0.62;1.97;1.13;;;26.10;25.30;;;;;;2261074;61;20408;-66
2022/06/14 05:50:44;0.00;0.00;0.62;0.00;0.00;0.62;2.37;1.10;;;26.10;25.30;;;;;;2260123;61;20380;-67
2022/06/14 05:53:40;0.00;0.00;0.62;0.00;0.00;0.62;2.13;1.37;;;26.10;25.40;;;;;;2260071;61;20422;-64
2022/06/14 05:56:33;0.00;0.00;0.62;0.00;0.00;0.62;2.07;1.60;;;26.10;25.40;;;;;;2256443;61;20877;-64
2022/06/14 05:59:31;0.00;0.00;0.62;0.00;0.00;0.62;2.87;1.83;;;26.10;25.30;;;;;;2259358;61;20443;-63
2022/06/14 06:02:23;0.00;0.00;0.62;0.00;0.00;0.62;2.87;1.63;;;26.10;25.20;;;;;;2257331;61;20353;-65
2022/06/14 06:05:15;0.00;0.00;0.62;0.00;0.00;0.62;4.20;1.60;;;26.10;25.20;;;;;;2259428;61;20456;-64
2022/06/14 06:08:06;0.00;0.00;0.62;0.00;0.00;0.62;2.77;1.67;;;26.00;25.10;;;;;;2259467;61;20954;-67
2022/06/14 06:10:57;0.00;0.00;0.62;0.00;0.00;0.62;2.33;1.30;;;26.00;25.10;;;;;;2260292;61;20384;-64
2022/06/14 06:13:48;0.00;0.00;0.62;0.00;0.00;0.62;4.27;2.00;;;26.00;25.20;;;;;;2259148;61;20411;-65
2022/06/14 06:16:39;0.00;0.00;0.62;0.00;0.00;0.62;3.23;2.20;;;26.00;25.30;;;;;;2259938;61;20415;-61
2022/06/14 06:19:30;0.00;0.00;0.62;0.00;0.00;0.62;1.90;1.40;;;26.00;25.30;;;;;;2261081;61;20781;-68
2022/06/14 06:22:20;0.00;0.00;0.62;0.00;0.00;0.62;3.07;2.13;;;26.00;25.40;;;;;;2260982;61;20857;-66
2022/06/14 06:25:10;0.00;0.00;0.62;0.00;0.00;0.62;3.50;1.90;;;26.00;25.50;;;;;;2264619;61;20404;-60
2022/06/14 06:28:05;0.00;0.00;0.62;0.00;0.00;0.62;3.60;2.10;;;26.00;25.50;;;;;;2262916;61;20353;-60
2022/06/14 06:30:53;0.00;0.00;0.62;0.00;0.00;0.62;4.00;1.87;;;26.00;25.50;;;;;;2264174;61;20389;-62
2022/06/14 06:33:42;0.00;0.00;0.62;0.00;0.00;0.62;7.57;2.53;;;26.00;25.50;;;;;;2261557;61;20393;-62
2022/06/14 06:36:50;0.00;0.00;0.62;0.00;0.00;0.62;2.90;2.07;;;26.00;25.50;;;;;;2261615;61;20365;-62
2022/06/14 06:39:49;0.00;0.00;0.62;0.00;0.00;0.62;4.47;2.17;;;26.00;25.40;;;;;;2265962;61;20461;-62
2022/06/14 06:42:41;0.00;0.00;0.62;0.00;0.00;0.62;4.13;2.07;;;26.00;25.50;;;;;;2262323;61;20412;-63
2022/06/14 06:45:30;0.00;0.00;0.62;0.00;0.00;0.62;4.17;2.10;;;26.00;25.40;;;;;;2262595;61;20361;-69
2022/06/14 06:48:21;0.00;0.00;0.62;0.00;0.00;0.62;4.20;1.90;;;26.00;25.40;;;;;;2261901;61;20361;-60
2022/06/14 06:51:14;0.00;0.00;0.62;0.00;0.00;0.62;6.17;2.40;;;26.00;25.40;;;;;;2263866;61;20390;-66
2022/06/14 06:54:07;0.00;0.00;0.62;0.00;0.00;0.62;5.20;2.40;;;25.90;25.20;;;;;;2264758;61;20381;-60
2022/06/14 06:56:57;0.00;0.00;0.62;0.00;0.00;0.62;4.40;2.40;;;25.90;25.20;;;;;;2264633;61;20361;-61
2022/06/14 06:59:46;0.00;0.00;0.62;0.00;0.00;0.62;4.33;2.30;;;25.90;25.20;;;;;;2262367;61;20474;-64
2022/06/14 07:02:41;0.00;0.00;0.62;0.00;0.00;0.62;3.30;1.80;;;25.90;25.20;;;;;;2263006;61;20403;-62
2022/06/14 07:05:26;0.00;0.00;0.62;0.00;0.00;0.62;4.40;1.90;;;25.80;25.10;;;;;;2265210;61;20400;-62
2022/06/14 07:08:17;0.00;0.00;0.62;0.00;0.00;0.62;3.10;1.70;;;25.80;25.10;;;;;;2266161;61;20365;-60
2022/06/14 07:11:05;0.00;0.00;0.62;0.00;0.00;0.62;5.37;2.20;;;25.80;25.20;;;;;;2262523;61;20404;-61
2022/06/14 07:13:55;0.00;0.00;0.62;0.00;0.00;0.62;3.50;1.50;;;25.70;25.00;;;;;;2265585;61;20393;-61
2022/06/14 07:16:47;0.00;0.00;0.62;0.00;0.00;0.62;8.33;1.93;;;25.70;24.90;;;;;;2266511;61;20365;-61
2022/06/14 07:19:42;0.00;0.00;0.62;0.00;0.00;0.62;2.90;1.97;;;25.60;24.80;;;;;;2261743;61;20798;-62
2022/06/14 07:22:35;0.00;0.00;0.62;0.00;0.00;0.62;4.30;2.00;;;25.60;24.90;;;;;;2266181;61;20361;-60
2022/06/14 07:25:25;0.00;0.00;0.62;0.00;0.00;0.62;5.17;2.00;;;25.50;25.00;;;;;;2262237;61;20402;-60
2022/06/14 07:28:15;0.00;0.00;0.62;0.00;0.00;0.62;2.70;1.60;;;25.50;25.00;;;;;;2264895;61;20787;-67
2022/06/14 07:31:06;0.00;0.00;0.62;0.00;0.00;0.62;3.20;1.33;;;25.40;24.90;;;;;;2263210;61;20842;-62
2022/06/14 07:33:51;0.00;0.00;0.62;0.00;0.00;0.62;4.07;1.83;;;25.40;25.00;;;;;;2264880;61;20391;-62
2022/06/14 07:36:56;0.00;0.00;0.62;0.00;0.00;0.62;3.10;1.60;;;25.30;25.40;;;;;;2262016;61;20482;-62
2022/06/14 07:39:46;0.00;0.00;0.62;0.00;0.00;0.62;4.20;1.90;;;25.20;25.20;;;;;;2265811;61;20385;-61
2022/06/14 07:42:38;0.00;0.00;0.62;0.00;0.00;0.62;4.10;1.80;;;25.20;25.30;;;;;;2264595;61;20802;-60
2022/06/14 07:45:28;0.00;0.00;0.62;0.00;0.00;0.62;3.07;1.80;;;25.20;25.30;;;;;;2265277;61;20408;-60
2022/06/14 07:48:21;0.00;0.00;0.62;0.00;0.00;0.62;3.67;1.80;;;25.10;25.30;;;;;;2265536;61;20369;-59
2022/06/14 07:51:12;0.00;0.00;0.62;0.00;0.00;0.62;3.20;1.33;;;25.10;25.30;;;;;;2262178;61;20424;-61
2022/06/14 07:54:08;0.00;0.00;0.62;0.00;0.00;0.62;5.10;1.90;;;25.10;25.40;;;;;;2266116;61;20385;-61
2022/06/14 07:56:57;0.00;0.00;0.62;0.00;0.00;0.62;4.33;1.40;;;25.00;25.40;;;;;;2264434;61;20373;-61
2022/06/14 07:59:53;0.00;0.00;0.62;0.00;0.00;0.62;3.70;1.33;;;25.00;25.40;;;;;;2262758;61;20384;-61
2022/06/14 08:02:40;0.00;0.00;0.62;0.00;0.00;0.62;5.63;2.07;;;25.00;25.40;;;;;;2265728;61;20356;-61
2022/06/14 08:05:31;0.00;0.00;0.62;0.00;0.00;0.62;5.63;2.30;;;25.00;25.40;;;;;;2261563;61;20365;-60
2022/06/14 08:08:23;0.00;0.00;0.62;0.00;0.00;0.62;3.50;1.60;;;24.90;25.40;;;;;;2262538;61;20364;-61
2022/06/14 08:11:19;0.00;0.00;0.62;0.00;0.00;0.62;5.70;2.00;;;24.80;25.40;;;;;;2264883;61;20404;-61
2022/06/14 08:14:10;0.00;0.00;0.62;0.00;0.00;0.62;3.87;1.47;;;24.80;25.50;;;;;;2262469;61;20369;-60
2022/06/14 08:16:57;0.00;0.00;0.62;0.00;0.00;0.62;5.77;1.70;;;24.80;25.60;;;;;;2265332;61;20361;-62
2022/06/14 08:19:46;0.00;0.00;0.62;0.00;0.00;0.62;4.80;1.83;;;24.70;25.60;;;;;;2264764;61;20779;-61
2022/06/14 08:22:42;0.00;0.00;0.62;0.00;0.00;0.62;3.77;1.83;;;24.70;25.60;;;;;;2262355;61;20449;-59
2022/06/14 08:25:32;0.00;0.00;0.62;0.00;0.00;0.62;4.13;1.70;;;24.70;25.60;;;;;;2260683;61;20369;-61
2022/06/14 08:28:23;0.00;0.00;0.62;0.00;0.00;0.62;3.40;1.53;;;24.70;25.70;;;;;;2264333;61;20428;-62
2022/06/14 08:31:14;0.00;0.00;0.62;0.00;0.00;0.62;2.70;1.30;;;24.70;25.70;;;;;;2261900;61;20389;-62
2022/06/14 08:34:07;0.00;0.00;0.62;0.00;0.00;0.62;2.40;1.60;;;24.70;26.30;;;;;;2259717;61;20393;-60
2022/06/14 08:36:57;0.00;0.00;0.62;0.00;0.00;0.62;5.03;2.50;;;24.70;25.70;;;;;;2264451;61;20364;-60
2022/06/14 08:39:47;0.00;0.00;0.62;0.00;0.00;0.62;3.17;1.60;;;24.70;25.60;;;;;;2263484;61;20377;-61
2022/06/14 08:42:37;0.00;0.00;0.62;0.00;0.00;0.62;5.17;1.73;;;24.70;25.60;;;;;;2260524;61;20415;-61
2022/06/14 08:45:40;0.00;0.00;0.62;0.00;0.00;0.62;4.67;2.17;;;24.70;25.60;;;;;;2264457;61;20400;-59
2022/06/14 08:48:39;0.00;0.00;0.62;0.00;0.00;0.62;1.90;1.27;;;24.70;25.60;;;;;;2261953;61;20372;-66
2022/06/14 08:51:33;0.00;0.00;0.62;0.00;0.00;0.62;2.37;1.30;;;24.70;25.70;;;;;;2260376;61;20459;-65
2022/06/14 08:55:12;0.00;0.00;0.62;0.00;0.00;0.62;4.63;1.73;;;24.70;25.80;;;;;;2259978;61;20369;-60
2022/06/14 08:58:26;0.00;0.00;0.62;0.00;0.00;0.62;3.43;1.97;;;24.70;25.90;;;;;;2243124;61;20416;-65
2022/06/14 09:01:26;0.00;0.00;0.62;0.00;0.00;0.62;3.43;1.77;;;24.70;26.00;;;;;;2243752;61;20464;-61
2022/06/14 09:04:51;0.00;0.00;0.62;0.00;0.00;0.62;3.20;1.73;;;24.70;26.00;;;;;;2243562;61;20421;-62
2022/06/14 09:08:17;0.00;0.00;0.62;0.00;0.00;0.62;3.00;1.90;;;24.70;26.00;;;;;;2228076;62;20427;-64
2022/06/14 09:11:41;0.00;0.00;0.62;0.00;0.00;0.62;6.60;2.33;;;24.70;26.00;;;;;;2229116;61;20429;-66
2022/06/14 09:15:05;0.00;0.00;0.62;0.00;0.00;0.62;4.20;1.60;;;24.80;26.10;;;;;;2243320;61;20368;-65
2022/06/14 09:18:21;0.00;0.00;0.62;0.00;0.00;0.62;3.53;1.80;;;24.80;26.20;;;;;;2226248;62;20432;-66
2022/06/14 09:21:21;0.00;0.00;0.62;0.00;0.00;0.62;3.97;1.70;;;24.80;26.30;;;;;;2244052;61;20404;-63
2022/06/14 09:24:35;0.00;0.00;0.62;0.00;0.00;0.62;3.80;1.60;;;24.80;26.30;;;;;;2240848;61;20404;-61
2022/06/14 09:27:50;0.00;0.00;0.62;0.00;0.00;0.62;5.50;2.07;;;24.80;26.40;;;;;;2254416;61;20439;-61
2022/06/14 09:31:22;0.00;0.00;0.62;0.00;0.00;0.62;3.20;1.57;;;24.90;26.40;;;;;;2260415;61;20384;-65
2022/06/14 09:34:37;0.00;0.00;0.62;0.00;0.00;0.62;4.77;1.47;;;24.90;26.40;;;;;;2259379;61;20447;-63
2022/06/14 09:37:59;0.00;0.00;0.62;0.00;0.00;0.62;2.97;1.53;;;24.90;26.50;;;;;;2260373;61;20368;-65
2022/06/14 09:41:00;0.00;0.00;0.62;0.00;0.00;0.62;1.90;1.30;;;25.00;26.60;;;;;;2259422;61;20390;-61
2022/06/14 09:44:12;0.00;0.00;0.62;0.00;0.00;0.62;3.53;1.77;;;25.00;26.70;;;;;;2260112;61;20365;-57
2022/06/14 09:47:24;0.00;0.00;0.62;0.00;0.00;0.62;3.20;1.93;;;25.00;26.70;;;;;;2258944;61;20906;-63
2022/06/14 09:51:00;0.00;0.00;0.62;0.00;0.00;0.62;3.63;1.83;;;25.00;26.70;;;;;;2260704;61;20384;-61
2022/06/14 09:54:41;0.00;0.00;0.62;0.00;0.00;0.62;5.70;1.90;;;25.10;26.70;;;;;;2243287;61;20392;-61
2022/06/14 09:57:47;0.00;0.00;0.62;0.00;0.00;0.62;3.70;2.03;;;25.10;26.60;;;;;;2232441;62;20468;-66
2022/06/14 10:00:42;0.00;0.00;0.62;0.00;0.00;0.62;2.77;1.80;;;25.20;26.50;;;;;;2232343;62;20390;-64
2022/06/14 10:03:58;0.00;0.00;0.62;0.00;0.00;0.62;3.33;1.73;;;25.20;26.10;;;;;;2226461;62;20433;-64
2022/06/14 10:07:07;0.00;0.00;0.62;0.00;0.00;0.62;5.00;2.00;;;25.20;26.10;;;;;;2227659;62;20387;-65
2022/06/14 10:10:21;0.00;0.00;0.62;0.00;0.00;0.62;3.67;1.93;;;25.20;26.00;;;;;;2226390;62;20444;-62
2022/06/14 10:14:04;0.00;0.00;0.62;0.00;0.00;0.62;3.77;2.00;;;25.30;26.00;;;;;;2234335;61;20486;-62
2022/06/14 10:17:28;0.00;0.00;0.62;0.00;0.00;0.62;4.60;1.97;;;25.30;25.80;;;;;;2241242;61;20381;-61
2022/06/14 10:20:45;0.00;0.00;0.62;0.00;0.00;0.62;2.33;1.93;;;25.30;25.60;;;;;;2243017;61;20981;-60
2022/06/14 10:23:48;0.00;0.00;0.62;0.00;0.00;0.62;2.90;2.20;;;25.30;25.50;;;;;;2239210;61;20446;-61
2022/06/14 10:30:18;0.00;0.00;0.62;0.00;0.00;0.62;3.53;2.13;;;25.40;25.60;;;;;;2251411;61;20905;-61
2022/06/14 10:33:43;0.00;0.00;0.62;0.00;0.00;0.62;2.40;1.57;;;25.40;25.60;;;;;;2260240;61;20388;-61
2022/06/14 10:36:55;0.00;0.00;0.62;0.00;0.00;0.62;2.93;1.40;;;25.50;25.70;;;;;;2252451;61;20402;-62
2022/06/14 10:40:18;0.00;0.00;0.62;0.00;0.00;0.62;1.80;1.40;;;25.50;25.70;;;;;;2259922;61;20393;-61
2022/06/14 10:43:15;0.00;0.00;0.62;0.00;0.00;0.62;1.90;1.50;;;25.50;25.70;;;;;;2264264;61;20365;-60
2022/06/14 10:46:07;0.00;0.00;0.62;0.00;0.00;0.62;2.70;1.57;;;25.60;25.80;;;;;;2263792;61;20373;-61
2022/06/14 10:49:28;0.00;0.00;0.62;0.00;0.00;0.62;3.40;1.20;;;25.60;25.80;;;;;;2263661;61;20396;-61
2022/06/14 10:52:36;0.00;0.00;0.62;0.00;0.00;0.62;1.83;1.23;;;25.60;25.80;;;;;;2256708;61;20436;-61
2022/06/14 10:55:54;0.00;0.00;0.62;0.00;0.00;0.62;2.83;1.43;;;25.70;25.80;;;;;;2259421;61;20366;-62
2022/06/14 10:59:30;0.00;0.00;0.62;0.00;0.00;0.62;2.43;1.37;;;25.70;25.80;;;;;;2257164;61;20504;-61
2022/06/14 11:02:30;0.00;0.00;0.62;0.00;0.00;0.62;2.47;1.33;;;25.80;25.80;;;;;;2259718;61;20763;-61
2022/06/14 11:05:26;0.00;0.00;0.62;0.00;0.00;0.62;1.83;1.23;;;25.80;25.80;;;;;;2260215;61;20424;-62
2022/06/14 11:08:41;0.00;0.00;0.62;0.00;0.00;0.62;2.47;1.70;;;25.80;25.80;;;;;;2259811;61;20355;-60
2022/06/14 11:11:52;0.00;0.00;0.62;0.00;0.00;0.62;3.23;1.70;;;25.90;25.90;;;;;;2260374;61;20436;-61
2022/06/14 11:14:48;0.00;0.00;0.62;0.00;0.00;0.62;3.83;1.67;;;25.90;25.90;;;;;;2260136;61;20346;-61
2022/06/14 11:18:08;0.00;0.00;0.62;0.00;0.00;0.62;2.37;1.40;;;26.00;25.90;;;;;;2261116;61;20440;-60
2022/06/14 11:21:04;0.00;0.00;0.62;0.00;0.00;0.62;2.00;1.20;;;26.00;25.90;;;;;;2258050;61;20436;-62
2022/06/14 11:23:56;0.00;0.00;0.62;0.00;0.00;0.62;2.70;1.30;;;26.00;25.80;;;;;;2257138;61;20412;-61
2022/06/14 11:26:59;0.00;0.00;0.62;0.00;0.00;0.62;3.50;1.27;;;26.00;25.80;;;;;;2262132;61;20381;-60
2022/06/14 11:29:59;0.00;0.00;0.62;0.00;0.00;0.62;2.50;1.50;;;26.10;25.80;;;;;;2260697;61;20433;-60
2022/06/14 11:32:52;0.00;0.00;0.62;0.00;0.00;0.62;2.23;1.40;;;26.20;25.80;;;;;;2261010;61;20394;-62
2022/06/14 11:36:06;0.00;0.00;0.62;0.00;0.00;0.62;3.50;1.90;;;26.20;25.80;;;;;;2254998;61;20377;-62
2022/06/14 11:39:09;0.00;0.00;0.62;0.00;0.00;0.62;2.10;1.30;;;26.20;26.40;;;;;;2260073;61;20369;-61
2022/06/14 11:41:54;0.00;0.00;0.62;0.00;0.00;0.62;2.50;1.57;;;26.20;25.80;;;;;;2258083;61;20368;-60
2022/06/14 11:45:06;0.00;0.00;0.62;0.00;0.00;0.62;3.07;1.53;;;26.30;25.80;;;;;;2260835;61;20382;-62